Saint Anne, Missouri
Current Conditions -  °F | °C
As of 3:51 AM on Sunday 26 Oct 2014 (Local Time) from KSTL Reporting Station
Clear Clear  
Wind Chill: 56°   Ceiling: Unl
Heat Index: 56°   Visibility: 7mi
Dew Point: 46°   Wind: 0mph
Humidity: 69%   Direction: NA
Pressure: 30.03"   Gusts: NA
Location:  38.7263°N, 90.3885°W
Report Text: KSTL 260851Z 00000KT 7SM CLR 13/08 A3003 RMK AO2 SLP160 T01330078 53001
Loading
Personal Weather Stations






























Interactive Weather Map New forecast layout! Learn more

10-Day Weather Forecast

Advertisements
Track Severe Weather on mobile